Time;durP1;ratioP1;P1;durP2;ratioP2;P2;SDS_P1;SDS_P2;PMS_P1;PMS_P2;Temp;Humidity;BMP_temperature;BMP_pressure;BME280_temperature;BME280_humidity;BME280_pressure;Samples;Min_cycle;Max_cycle;Signal;HPM_P1;HPM_P2
2021/10/22 00:00:16;;;;;;;12.93;2.85;;;7.60;99.90;;;;;;2081030;28;20052;-70
2021/10/22 00:01:17;;;;;;;7.15;2.25;;;7.60;99.90;;;;;;2080917;28;20033;-70
2021/10/22 00:02:17;;;;;;;11.82;2.67;;;7.50;99.90;;;;;;2081007;28;20029;-70
2021/10/22 00:03:18;;;;;;;7.35;2.65;;;7.50;99.90;;;;;;2080391;28;20080;-71
2021/10/22 00:04:19;;;;;;;7.75;2.20;;;7.50;99.90;;;;;;2080852;28;20022;-70
2021/10/22 00:05:19;;;;;;;10.48;2.40;;;7.50;99.90;;;;;;2080956;28;20104;-70
2021/10/22 00:06:20;;;;;;;12.38;2.70;;;7.50;99.90;;;;;;2080918;28;20400;-70
2021/10/22 00:07:20;;;;;;;13.25;2.70;;;7.50;99.90;;;;;;2080508;28;20057;-70
2021/10/22 00:08:21;;;;;;;16.15;2.60;;;7.40;99.90;;;;;;2080397;28;20440;-70
2021/10/22 00:09:22;;;;;;;12.95;2.72;;;7.40;99.90;;;;;;2080807;28;20083;-71
2021/10/22 00:10:22;;;;;;;14.05;2.80;;;7.50;99.90;;;;;;2081079;28;20034;-71
2021/10/22 00:11:23;;;;;;;12.48;2.60;;;7.50;99.90;;;;;;2080837;28;20030;-69
2021/10/22 00:12:24;;;;;;;12.75;2.30;;;7.50;99.90;;;;;;2081122;28;20064;-69
2021/10/22 00:13:24;;;;;;;11.05;2.72;;;7.50;99.90;;;;;;2079890;28;20033;-69
2021/10/22 00:14:25;;;;;;;12.82;2.60;;;7.50;99.90;;;;;;2080375;28;20036;-69
2021/10/22 00:15:26;;;;;;;12.95;2.50;;;7.40;99.90;;;;;;2080800;28;20030;-70
2021/10/22 00:16:27;;;;;;;12.32;2.60;;;7.50;99.90;;;;;;2080849;28;20037;-69
2021/10/22 00:17:28;;;;;;;10.50;2.35;;;7.50;99.90;;;;;;2080946;28;20513;-70
2021/10/22 00:18:28;;;;;;;14.77;2.90;;;7.50;99.90;;;;;;2080892;28;20021;-69
2021/10/22 00:19:29;;;;;;;14.23;2.97;;;7.50;99.90;;;;;;2080951;28;20083;-70
2021/10/22 00:20:29;;;;;;;12.43;2.67;;;7.50;99.90;;;;;;2081022;28;20036;-69
2021/10/22 00:21:31;;;;;;;11.77;2.50;;;7.50;99.90;;;;;;2080875;28;20044;-69
2021/10/22 00:22:35;;;;;;;11.95;2.53;;;7.40;99.90;;;;;;2081082;28;20033;-72
2021/10/22 00:23:36;;;;;;;15.10;2.80;;;7.50;99.90;;;;;;2079664;28;20041;-70
2021/10/22 00:24:37;;;;;;;14.30;2.88;;;7.50;99.90;;;;;;2080614;28;20116;-70
2021/10/22 00:25:38;;;;;;;14.32;2.70;;;7.50;99.90;;;;;;2081025;28;20033;-70
2021/10/22 00:26:39;;;;;;;11.27;2.65;;;7.50;99.90;;;;;;2081027;28;20489;-72
2021/10/22 00:27:40;;;;;;;14.20;2.80;;;7.50;99.90;;;;;;2080855;28;20025;-71
2021/10/22 00:28:41;;;;;;;15.05;2.60;;;7.40;99.90;;;;;;2081056;28;20025;-70
2021/10/22 00:29:42;;;;;;;11.82;2.53;;;7.50;99.90;;;;;;2072428;28;20034;-69
2021/10/22 00:30:42;;;;;;;12.85;2.88;;;7.50;99.90;;;;;;2072296;28;20033;-71
2021/10/22 00:31:43;;;;;;;15.68;2.55;;;7.40;99.90;;;;;;2080880;28;20028;-69
2021/10/22 00:32:43;;;;;;;16.45;3.03;;;7.40;99.90;;;;;;2080952;28;20087;-69
2021/10/22 00:33:45;;;;;;;19.92;3.25;;;7.40;99.90;;;;;;2080634;28;20046;-71
2021/10/22 00:34:45;;;;;;;16.38;2.72;;;7.40;99.90;;;;;;2080915;28;20021;-70
2021/10/22 00:35:46;;;;;;;10.57;2.45;;;7.40;99.90;;;;;;2080809;28;20098;-71
2021/10/22 00:36:46;;;;;;;13.90;2.75;;;7.40;99.90;;;;;;2080978;28;20469;-71
2021/10/22 00:37:47;;;;;;;12.50;2.35;;;7.40;99.90;;;;;;2080781;28;20030;-70
2021/10/22 00:38:47;;;;;;;14.50;2.40;;;7.40;99.90;;;;;;2080112;28;20021;-71
2021/10/22 00:39:49;;;;;;;12.20;2.58;;;7.40;99.90;;;;;;2071889;28;20029;-69
2021/10/22 00:40:51;;;;;;;13.82;3.05;;;7.40;99.90;;;;;;2080244;28;20120;-71
2021/10/22 00:41:52;;;;;;;13.18;2.83;;;7.40;99.90;;;;;;2079830;28;20038;-70
2021/10/22 00:42:55;;;;;;;14.25;2.53;;;7.30;99.90;;;;;;2079734;28;20029;-69
2021/10/22 00:43:56;;;;;;;11.70;2.88;;;7.40;99.90;;;;;;2080518;28;20036;-70
2021/10/22 00:44:57;;;;;;;14.07;2.50;;;7.30;99.90;;;;;;2080649;28;20025;-71
2021/10/22 00:45:58;;;;;;;13.73;2.90;;;7.40;99.90;;;;;;2080814;28;20040;-71
2021/10/22 00:46:59;;;;;;;13.90;2.55;;;7.30;99.90;;;;;;2080739;28;20033;-70
2021/10/22 00:48:00;;;;;;;10.32;2.80;;;7.30;99.90;;;;;;2080573;28;20009;-72
2021/10/22 00:49:01;;;;;;;11.32;2.60;;;7.30;99.90;;;;;;2080774;28;20034;-70
2021/10/22 00:50:02;;;;;;;11.77;2.70;;;7.30;99.90;;;;;;2080096;28;20044;-69
2021/10/22 00:51:04;;;;;;;13.88;2.75;;;7.30;99.90;;;;;;2080093;28;20104;-70
2021/10/22 00:52:05;;;;;;;11.95;2.83;;;7.30;99.90;;;;;;2080560;28;20111;-71
2021/10/22 00:53:06;;;;;;;11.95;3.05;;;7.20;99.90;;;;;;2080308;28;20036;-71
2021/10/22 00:54:10;;;;;;;13.30;2.60;;;7.30;99.90;;;;;;2080700;28;20034;-72
2021/10/22 00:55:14;;;;;;;13.35;2.85;;;7.30;99.90;;;;;;2080320;28;20025;-71
2021/10/22 00:56:16;;;;;;;13.35;2.60;;;7.20;99.90;;;;;;2080185;28;20112;-69
2021/10/22 00:57:17;;;;;;;15.30;2.67;;;7.20;99.90;;;;;;2080795;28;20036;-69
2021/10/22 00:58:18;;;;;;;11.50;2.92;;;7.20;99.90;;;;;;2080694;28;20071;-71
2021/10/22 00:59:19;;;;;;;10.73;2.47;;;7.20;99.90;;;;;;2080630;28;20591;-68
2021/10/22 01:00:20;;;;;;;11.48;2.58;;;7.20;99.90;;;;;;2080832;28;20050;-70
2021/10/22 01:01:21;;;;;;;14.90;2.70;;;7.20;99.90;;;;;;2080487;28;20544;-70
2021/10/22 01:02:22;;;;;;;12.10;2.65;;;7.20;99.90;;;;;;2080310;28;20037;-71
2021/10/22 01:03:23;;;;;;;14.02;2.80;;;7.20;99.90;;;;;;2081587;28;20052;-71
2021/10/22 01:04:23;;;;;;;13.63;2.22;;;7.10;99.90;;;;;;2081747;28;20029;-70
2021/10/22 01:05:24;;;;;;;12.63;2.97;;;7.10;99.90;;;;;;2082386;28;20724;-70
2021/10/22 01:06:25;;;;;;;17.88;3.00;;;7.10;99.90;;;;;;2082495;28;20021;-71
2021/10/22 01:07:26;;;;;;;13.18;2.88;;;7.10;99.90;;;;;;2080400;28;20026;-72
2021/10/22 01:08:36;;;;;;;10.32;2.90;;;7.10;99.90;;;;;;2072160;28;20211;-71
2021/10/22 01:09:36;;;;;;;14.52;2.50;;;7.10;99.90;;;;;;2080101;28;20109;-70
2021/10/22 01:10:38;;;;;;;13.27;2.85;;;7.10;99.90;;;;;;2080475;28;20045;-70
2021/10/22 01:11:40;;;;;;;12.30;2.70;;;7.10;99.90;;;;;;2080188;28;20086;-71
2021/10/22 01:12:41;;;;;;;14.52;2.47;;;7.10;99.90;;;;;;2080512;28;20029;-70
2021/10/22 01:13:42;;;;;;;11.77;2.40;;;7.10;99.90;;;;;;2080010;28;20481;-70
2021/10/22 01:14:43;;;;;;;12.10;2.40;;;7.10;99.90;;;;;;2080472;28;20101;-71
2021/10/22 01:15:44;;;;;;;10.75;2.50;;;7.10;99.90;;;;;;2080483;28;20737;-70
2021/10/22 01:16:44;;;;;;;12.02;2.42;;;7.00;99.90;;;;;;2080341;28;20032;-70
2021/10/22 01:17:47;;;;;;;11.23;2.40;;;7.10;99.90;;;;;;2079780;28;20033;-70
2021/10/22 01:18:50;;;;;;;16.05;2.65;;;7.10;99.90;;;;;;2079856;28;20026;-70
2021/10/22 01:19:51;;;;;;;12.25;2.80;;;7.00;99.90;;;;;;2080385;28;20024;-69
2021/10/22 01:21:02;;;;;;;13.38;2.60;;;7.10;99.90;;;;;;2080516;28;20033;-70
2021/10/22 01:22:03;;;;;;;12.65;2.60;;;7.10;99.90;;;;;;2080321;28;20531;-70
2021/10/22 01:23:03;;;;;;;17.92;3.30;;;7.10;99.90;;;;;;2080108;28;20026;-70
2021/10/22 01:24:04;;;;;;;14.65;3.05;;;7.10;99.90;;;;;;2080301;28;20041;-69
2021/10/22 01:25:07;;;;;;;10.10;2.47;;;7.10;99.90;;;;;;2080601;28;20370;-70
2021/10/22 01:26:07;;;;;;;8.90;2.53;;;7.00;99.90;;;;;;2080640;28;20040;-70
2021/10/22 01:27:08;;;;;;;13.98;2.72;;;7.00;99.90;;;;;;2080494;28;20120;-69
2021/10/22 01:28:09;;;;;;;13.40;2.72;;;7.10;99.90;;;;;;2080325;28;20396;-70
2021/10/22 01:29:09;;;;;;;12.30;2.60;;;7.10;99.90;;;;;;2080409;28;20029;-70
2021/10/22 01:30:12;;;;;;;10.93;2.67;;;7.00;99.90;;;;;;2079997;28;20022;-70
2021/10/22 01:31:13;;;;;;;11.07;2.63;;;7.00;99.90;;;;;;2079711;28;20041;-70
2021/10/22 01:32:14;;;;;;;8.32;2.47;;;7.00;99.90;;;;;;2080518;28;20469;-70
2021/10/22 01:33:19;;;;;;;15.68;3.10;;;7.00;99.90;;;;;;2080002;28;20075;-70
2021/10/22 01:34:19;;;;;;;13.15;2.60;;;7.00;99.90;;;;;;2080512;28;20053;-71
2021/10/22 01:35:20;;;;;;;16.10;2.92;;;7.00;99.90;;;;;;2079800;28;20401;-70
2021/10/22 01:36:21;;;;;;;12.35;2.83;;;7.00;99.90;;;;;;2079877;28;20036;-70
2021/10/22 01:37:21;;;;;;;13.35;2.75;;;7.00;99.90;;;;;;2080580;28;20366;-71
2021/10/22 01:38:25;;;;;;;12.85;2.70;;;7.00;99.90;;;;;;2080495;28;20025;-71
2021/10/22 01:39:26;;;;;;;12.68;2.40;;;7.00;99.90;;;;;;2080605;28;20382;-70
2021/10/22 01:40:27;;;;;;;16.45;2.78;;;7.00;99.90;;;;;;2080665;28;20071;-70
2021/10/22 01:41:28;;;;;;;14.85;2.78;;;7.00;99.90;;;;;;2080203;28;20014;-71
2021/10/22 01:42:29;;;;;;;14.68;3.00;;;7.00;99.90;;;;;;2080287;28;20030;-72
2021/10/22 01:43:30;;;;;;;16.23;3.13;;;7.00;99.90;;;;;;2079871;28;20096;-70
2021/10/22 01:44:31;;;;;;;13.48;2.90;;;7.00;99.90;;;;;;2080530;28;20069;-70
2021/10/22 01:45:31;;;;;;;11.07;2.90;;;6.90;99.90;;;;;;2080422;28;20033;-71
2021/10/22 01:46:32;;;;;;;15.90;2.88;;;7.00;99.90;;;;;;2080546;28;20054;-71
2021/10/22 01:47:32;;;;;;;12.40;2.80;;;7.00;99.90;;;;;;2080576;28;20030;-71
2021/10/22 01:48:33;;;;;;;12.30;3.05;;;7.00;99.90;;;;;;2080524;28;20488;-70
2021/10/22 01:49:34;;;;;;;13.57;2.70;;;7.00;99.90;;;;;;2079859;28;20029;-72
2021/10/22 01:50:34;;;;;;;10.40;2.75;;;7.00;99.90;;;;;;2079926;28;20032;-71
2021/10/22 01:51:35;;;;;;;17.27;2.83;;;6.90;99.90;;;;;;2080194;28;20025;-69
2021/10/22 01:52:36;;;;;;;17.85;2.92;;;6.90;99.90;;;;;;2080001;28;21046;-70
2021/10/22 01:53:36;;;;;;;13.25;2.75;;;6.90;99.90;;;;;;2079261;28;20029;-71
2021/10/22 01:54:37;;;;;;;14.52;2.95;;;6.90;99.90;;;;;;2080258;28;20386;-71
2021/10/22 01:55:38;;;;;;;18.10;2.80;;;6.90;99.90;;;;;;2079845;28;20033;-71
2021/10/22 01:56:38;;;;;;;13.30;3.08;;;6.90;99.90;;;;;;2079792;28;20026;-71
2021/10/22 01:57:39;;;;;;;13.50;2.72;;;6.90;99.90;;;;;;2080387;28;20553;-71
2021/10/22 01:58:39;;;;;;;14.45;3.00;;;6.90;99.90;;;;;;2080325;28;20087;-70
2021/10/22 01:59:41;;;;;;;18.48;3.35;;;6.90;99.90;;;;;;2080339;28;20025;-69
2021/10/22 02:00:42;;;;;;;10.63;2.67;;;6.90;99.90;;;;;;2079668;28;20045;-70
2021/10/22 02:01:43;;;;;;;13.82;3.00;;;6.90;99.90;;;;;;2079418;28;20036;-71
2021/10/22 02:02:43;;;;;;;16.55;2.75;;;6.90;99.90;;;;;;2080338;28;20030;-68
2021/10/22 02:03:44;;;;;;;18.02;3.10;;;6.80;99.90;;;;;;2079172;28;20030;-69
2021/10/22 02:04:45;;;;;;;16.25;3.17;;;6.80;99.90;;;;;;2079740;28;20072;-69
2021/10/22 02:05:46;;;;;;;18.25;2.80;;;6.80;99.90;;;;;;2080460;28;20025;-70
2021/10/22 02:06:48;;;;;;;12.00;3.17;;;6.90;99.90;;;;;;2080324;28;20025;-69
2021/10/22 02:07:48;;;;;;;12.23;2.80;;;6.80;99.90;;;;;;2080222;28;20044;-69
2021/10/22 02:08:49;;;;;;;15.23;2.72;;;6.80;99.90;;;;;;2081067;28;20533;-71
2021/10/22 02:09:50;;;;;;;12.05;2.70;;;6.80;99.90;;;;;;2082580;28;20015;-72
2021/10/22 02:10:51;;;;;;;13.95;2.67;;;6.80;99.90;;;;;;2082452;28;20029;-72
2021/10/22 02:11:51;;;;;;;13.00;3.05;;;6.80;99.90;;;;;;2081898;28;20029;-70
2021/10/22 02:12:52;;;;;;;18.52;3.22;;;6.80;99.90;;;;;;2080673;28;20025;-70
2021/10/22 02:13:53;;;;;;;15.23;3.40;;;6.80;99.90;;;;;;2080405;28;20152;-70
2021/10/22 02:14:54;;;;;;;15.70;2.90;;;6.80;99.90;;;;;;2080640;28;20025;-69
2021/10/22 02:15:55;;;;;;;10.13;2.83;;;6.80;99.90;;;;;;2079886;28;20465;-72
2021/10/22 02:16:56;;;;;;;12.45;2.60;;;6.80;99.90;;;;;;2080113;28;20061;-69
2021/10/22 02:17:59;;;;;;;12.75;2.90;;;6.80;99.90;;;;;;2080671;28;20025;-73
2021/10/22 02:18:59;;;;;;;13.30;3.13;;;6.80;99.90;;;;;;2080498;28;20548;-72
2021/10/22 02:20:00;;;;;;;13.68;3.03;;;6.80;99.90;;;;;;2080590;28;20088;-70
2021/10/22 02:21:01;;;;;;;11.82;3.05;;;6.80;99.90;;;;;;2080490;28;20034;-70
2021/10/22 02:22:01;;;;;;;9.30;3.03;;;6.80;99.90;;;;;;2079469;28;20049;-71
2021/10/22 02:23:02;;;;;;;15.25;3.03;;;6.80;99.90;;;;;;2079081;28;20168;-70
2021/10/22 02:24:03;;;;;;;10.50;2.53;;;6.80;99.90;;;;;;2079641;28;20084;-70
2021/10/22 02:25:05;;;;;;;17.65;3.42;;;6.80;99.90;;;;;;2079697;28;20152;-71
2021/10/22 02:26:05;;;;;;;13.63;2.80;;;6.80;99.90;;;;;;2079723;28;20045;-70
2021/10/22 02:27:06;;;;;;;10.75;2.70;;;6.80;99.90;;;;;;2080234;28;20036;-71
2021/10/22 02:28:06;;;;;;;13.35;2.97;;;6.80;99.90;;;;;;2079748;28;20034;-70
2021/10/22 02:29:07;;;;;;;13.18;2.90;;;6.80;99.90;;;;;;2079698;28;20477;-70
2021/10/22 02:30:08;;;;;;;13.65;3.00;;;6.80;99.90;;;;;;2080287;28;20021;-71
2021/10/22 02:31:09;;;;;;;13.75;2.80;;;6.80;99.90;;;;;;2072111;28;20511;-70
2021/10/22 02:32:09;;;;;;;10.73;2.83;;;6.80;99.90;;;;;;2072789;28;20057;-70
2021/10/22 02:33:11;;;;;;;11.40;2.95;;;6.80;99.90;;;;;;2072509;28;20041;-70
2021/10/22 02:34:12;;;;;;;11.45;2.72;;;6.80;99.90;;;;;;2081286;28;20029;-70
2021/10/22 02:35:13;;;;;;;14.43;2.97;;;6.80;99.90;;;;;;2081824;28;20528;-70
2021/10/22 02:36:13;;;;;;;14.95;2.90;;;6.80;99.90;;;;;;2081780;28;20037;-69
2021/10/22 02:37:14;;;;;;;16.05;3.17;;;6.80;99.90;;;;;;2081131;28;20032;-70
2021/10/22 02:38:15;;;;;;;15.88;3.35;;;6.80;99.90;;;;;;2081661;28;20029;-70
2021/10/22 02:39:16;;;;;;;13.30;2.95;;;6.90;99.90;;;;;;2082011;28;20042;-69
2021/10/22 02:40:17;;;;;;;15.68;3.05;;;6.90;99.90;;;;;;2081937;28;20511;-70
2021/10/22 02:41:18;;;;;;;13.32;3.13;;;6.90;99.90;;;;;;2081339;28;20362;-70
2021/10/22 02:42:20;;;;;;;13.93;3.22;;;6.90;99.90;;;;;;2081087;28;20119;-70
2021/10/22 02:43:20;;;;;;;16.05;3.22;;;6.90;99.90;;;;;;2080889;28;20183;-69
2021/10/22 02:44:21;;;;;;;12.20;3.10;;;6.90;99.90;;;;;;2081816;28;20029;-71
2021/10/22 02:45:22;;;;;;;13.40;3.10;;;6.80;99.90;;;;;;2081776;28;20034;-70
2021/10/22 02:46:23;;;;;;;10.68;2.72;;;6.80;99.90;;;;;;2081875;28;20075;-69
2021/10/22 02:47:23;;;;;;;14.18;3.17;;;6.80;99.90;;;;;;2081809;28;20147;-71
2021/10/22 02:48:24;;;;;;;14.77;2.97;;;6.80;99.90;;;;;;2080919;28;20025;-69
2021/10/22 02:49:26;;;;;;;12.93;2.88;;;6.80;99.90;;;;;;2080929;28;20064;-70
2021/10/22 02:50:26;;;;;;;11.10;2.90;;;6.80;99.90;;;;;;2080616;28;20164;-70
2021/10/22 02:51:28;;;;;;;15.40;3.30;;;6.80;99.90;;;;;;2072567;28;20030;-71
2021/10/22 02:52:29;;;;;;;13.65;3.05;;;6.80;99.90;;;;;;2072891;28;20069;-70
2021/10/22 02:53:29;;;;;;;13.80;2.80;;;6.80;99.90;;;;;;2064082;28;20034;-69
2021/10/22 02:54:30;;;;;;;13.60;3.70;;;6.80;99.90;;;;;;2072607;28;20026;-68
2021/10/22 02:55:31;;;;;;;16.17;3.20;;;6.80;99.90;;;;;;2081328;28;20778;-70
2021/10/22 02:56:31;;;;;;;14.38;3.03;;;6.90;99.90;;;;;;2080961;28;20482;-70
2021/10/22 02:57:32;;;;;;;11.73;3.20;;;6.80;99.90;;;;;;2072756;28;20036;-69
2021/10/22 02:58:33;;;;;;;15.45;3.15;;;6.80;99.90;;;;;;2072908;28;20045;-71
2021/10/22 02:59:34;;;;;;;14.07;3.10;;;6.80;99.90;;;;;;2081052;28;20029;-71
2021/10/22 03:00:36;;;;;;;13.77;2.90;;;6.80;99.90;;;;;;2072820;28;20026;-70
2021/10/22 03:01:37;;;;;;;12.15;2.83;;;6.80;99.90;;;;;;2073021;28;20026;-70
2021/10/22 03:02:45;;;;;;;18.23;3.30;;;6.80;99.90;;;;;;2080892;28;20060;-70
2021/10/22 03:03:45;;;;;;;14.23;2.75;;;6.80;99.90;;;;;;2080675;28;20041;-70
2021/10/22 03:04:46;;;;;;;15.63;3.28;;;6.80;99.90;;;;;;2072810;28;20389;-71
2021/10/22 03:05:46;;;;;;;16.13;3.30;;;6.80;99.90;;;;;;2081133;28;20092;-71
2021/10/22 03:06:48;;;;;;;15.07;3.15;;;6.80;99.90;;;;;;2081558;28;20041;-70
2021/10/22 03:07:49;;;;;;;14.20;3.10;;;6.80;99.90;;;;;;2081848;28;20413;-70
2021/10/22 03:08:49;;;;;;;12.77;2.90;;;6.80;99.90;;;;;;2081856;28;20112;-70
2021/10/22 03:09:50;;;;;;;10.50;2.88;;;6.80;99.90;;;;;;2082371;28;20095;-71
2021/10/22 03:10:50;;;;;;;11.85;2.70;;;6.80;99.90;;;;;;2082073;28;20099;-71
2021/10/22 03:11:51;;;;;;;17.10;3.70;;;6.80;99.90;;;;;;2081133;28;20736;-71
2021/10/22 03:12:54;;;;;;;12.90;3.30;;;6.80;99.90;;;;;;2081000;28;20018;-70
2021/10/22 03:13:55;;;;;;;8.15;2.60;;;6.80;99.90;;;;;;2081992;28;20132;-75
2021/10/22 03:14:56;;;;;;;13.77;3.13;;;6.70;99.90;;;;;;2082048;28;20052;-70
2021/10/22 03:15:58;;;;;;;11.20;2.95;;;6.70;99.90;;;;;;2081951;28;20033;-70
2021/10/22 03:16:59;;;;;;;12.40;3.00;;;6.70;99.90;;;;;;2081197;28;20034;-70
2021/10/22 03:18:00;;;;;;;14.88;3.33;;;6.70;99.90;;;;;;2081238;28;20033;-70
2021/10/22 03:19:01;;;;;;;13.70;2.83;;;6.70;99.90;;;;;;2081837;28;20048;-71
2021/10/22 03:20:03;;;;;;;12.60;3.15;;;6.70;99.90;;;;;;2081880;28;20056;-71
2021/10/22 03:21:03;;;;;;;11.40;3.00;;;6.70;99.90;;;;;;2081390;28;20080;-71
2021/10/22 03:22:04;;;;;;;15.07;2.90;;;6.70;99.90;;;;;;2072405;28;20773;-71
2021/10/22 03:23:05;;;;;;;13.48;3.28;;;6.70;99.90;;;;;;2071722;28;20032;-72
2021/10/22 03:24:05;;;;;;;11.75;3.03;;;6.70;99.90;;;;;;2080514;28;20652;-72
2021/10/22 03:25:07;;;;;;;12.57;2.97;;;6.70;99.90;;;;;;2080808;28;20032;-73
2021/10/22 03:26:08;;;;;;;16.58;2.95;;;6.60;99.90;;;;;;2081338;28;20032;-72
2021/10/22 03:27:11;;;;;;;11.98;3.17;;;6.70;99.90;;;;;;2080679;28;20780;-72
2021/10/22 03:28:12;;;;;;;10.65;2.92;;;6.70;99.90;;;;;;2080820;28;20120;-72
2021/10/22 03:29:12;;;;;;;16.70;3.10;;;6.70;99.90;;;;;;2081144;28;20041;-72
2021/10/22 03:30:13;;;;;;;12.10;2.78;;;6.70;99.90;;;;;;2081249;28;20395;-72
2021/10/22 03:31:14;;;;;;;12.93;3.00;;;6.60;99.90;;;;;;2081160;28;20043;-72
2021/10/22 03:32:15;;;;;;;9.40;2.55;;;6.60;99.90;;;;;;2080739;28;20029;-73
2021/10/22 03:33:16;;;;;;;9.45;2.80;;;6.70;99.90;;;;;;2080206;28;20532;-72
2021/10/22 03:34:18;;;;;;;13.15;2.95;;;6.60;99.90;;;;;;2080719;28;20416;-71
2021/10/22 03:35:18;;;;;;;11.60;2.80;;;6.70;99.90;;;;;;2080709;28;20091;-71
2021/10/22 03:36:19;;;;;;;12.68;2.92;;;6.70;99.90;;;;;;2081311;28;20558;-72
2021/10/22 03:37:20;;;;;;;17.25;2.83;;;6.70;99.90;;;;;;2081105;28;20029;-71
2021/10/22 03:38:21;;;;;;;14.50;3.10;;;6.70;99.90;;;;;;2081325;28;20021;-72
2021/10/22 03:39:21;;;;;;;9.93;2.60;;;6.60;99.90;;;;;;2081327;28;20041;-72
2021/10/22 03:40:23;;;;;;;16.85;3.30;;;6.60;99.90;;;;;;2080639;28;20033;-71
2021/10/22 03:41:24;;;;;;;13.07;2.83;;;6.60;99.90;;;;;;2080317;28;20091;-72
2021/10/22 03:42:24;;;;;;;13.05;2.92;;;6.60;99.90;;;;;;2080649;28;20180;-71
2021/10/22 03:43:29;;;;;;;13.18;2.92;;;6.60;99.90;;;;;;2080621;28;20061;-71
2021/10/22 03:44:30;;;;;;;11.13;2.85;;;6.60;99.90;;;;;;2081335;28;20036;-72
2021/10/22 03:45:30;;;;;;;10.90;2.65;;;6.60;99.90;;;;;;2081369;28;20112;-72
2021/10/22 03:46:31;;;;;;;11.57;2.92;;;6.60;99.90;;;;;;2081627;28;20136;-71
2021/10/22 03:47:32;;;;;;;13.27;3.13;;;6.60;99.90;;;;;;2081393;28;20033;-71
2021/10/22 03:48:32;;;;;;;12.05;3.08;;;6.60;99.90;;;;;;2081111;28;20017;-71
2021/10/22 03:49:33;;;;;;;11.35;2.90;;;6.70;99.90;;;;;;2081135;28;20147;-72
2021/10/22 03:50:34;;;;;;;17.58;3.28;;;6.70;99.90;;;;;;2080586;28;20099;-72
2021/10/22 03:51:34;;;;;;;12.18;2.97;;;6.70;99.90;;;;;;2080307;28;20021;-72
2021/10/22 03:52:35;;;;;;;13.32;3.20;;;6.70;99.90;;;;;;2080730;28;20366;-72
2021/10/22 03:53:35;;;;;;;17.77;3.08;;;6.70;99.90;;;;;;2080030;28;20532;-72
2021/10/22 03:54:36;;;;;;;12.82;2.83;;;6.70;99.90;;;;;;2080534;28;20562;-72
2021/10/22 03:55:37;;;;;;;11.80;2.70;;;6.70;99.90;;;;;;2080358;28;20033;-72
2021/10/22 03:56:38;;;;;;;16.30;3.00;;;6.70;99.90;;;;;;2081085;28;20403;-71
2021/10/22 03:57:39;;;;;;;15.15;3.05;;;6.70;99.90;;;;;;2080985;28;20037;-71
2021/10/22 03:58:40;;;;;;;13.85;3.40;;;6.60;99.90;;;;;;2081039;28;20104;-72
2021/10/22 03:59:40;;;;;;;13.80;3.10;;;6.70;99.90;;;;;;2081052;28;20139;-73
2021/10/22 04:00:41;;;;;;;14.10;3.03;;;6.70;99.90;;;;;;2081322;28;20048;-73
2021/10/22 04:01:43;;;;;;;17.40;3.47;;;6.70;99.90;;;;;;2080828;28;20393;-72
2021/10/22 04:02:45;;;;;;;18.15;3.05;;;6.70;99.90;;;;;;2080282;28;20018;-72
2021/10/22 04:03:45;;;;;;;15.43;3.08;;;6.70;99.90;;;;;;2079864;28;20099;-72
2021/10/22 04:04:47;;;;;;;15.85;3.03;;;6.70;99.90;;;;;;2080750;28;20488;-73
2021/10/22 04:05:47;;;;;;;10.73;3.08;;;6.70;99.90;;;;;;2080774;28;20682;-72
2021/10/22 04:06:48;;;;;;;10.25;2.75;;;6.60;99.90;;;;;;2080928;28;20037;-72
2021/10/22 04:07:48;;;;;;;12.20;3.33;;;6.60;99.90;;;;;;2081459;28;20034;-72
2021/10/22 04:08:49;;;;;;;11.15;3.20;;;6.60;99.90;;;;;;2081427;28;20065;-72
2021/10/22 04:09:50;;;;;;;13.70;2.88;;;6.60;99.90;;;;;;2072541;28;20033;-72
2021/10/22 04:10:50;;;;;;;12.70;2.88;;;6.60;99.90;;;;;;2064540;28;20451;-71
2021/10/22 04:11:51;;;;;;;11.98;3.00;;;6.60;99.90;;;;;;2080551;28;20049;-72
2021/10/22 04:12:52;;;;;;;12.20;3.17;;;6.60;99.90;;;;;;2081907;28;20048;-72
2021/10/22 04:13:52;;;;;;;15.77;3.22;;;6.60;99.90;;;;;;2079959;28;20032;-71
2021/10/22 04:14:54;;;;;;;12.50;3.03;;;6.60;99.90;;;;;;2072191;28;20109;-70
2021/10/22 04:15:54;;;;;;;14.55;3.10;;;6.60;99.90;;;;;;2081136;28;20113;-70
2021/10/22 04:16:56;;;;;;;13.80;3.35;;;6.60;99.90;;;;;;2081618;28;20473;-70
2021/10/22 04:17:57;;;;;;;15.93;2.90;;;6.60;99.90;;;;;;2082018;28;20037;-69
2021/10/22 04:18:57;;;;;;;13.95;3.03;;;6.70;99.90;;;;;;2081590;28;20060;-70
2021/10/22 04:19:58;;;;;;;12.68;3.35;;;6.70;99.90;;;;;;2081448;28;20021;-72
2021/10/22 04:20:58;;;;;;;17.00;3.10;;;6.60;99.90;;;;;;2080917;28;20450;-71
2021/10/22 04:21:59;;;;;;;16.33;3.38;;;6.60;99.90;;;;;;2072671;28;20069;-70
2021/10/22 04:23:00;;;;;;;11.10;2.88;;;6.60;99.90;;;;;;2080326;28;20032;-71
2021/10/22 04:24:01;;;;;;;11.65;2.80;;;6.60;99.90;;;;;;2080186;28;20079;-72
2021/10/22 04:25:03;;;;;;;12.10;3.00;;;6.60;99.90;;;;;;2072387;28;20030;-70
2021/10/22 04:26:03;;;;;;;11.40;2.90;;;6.60;99.90;;;;;;2080457;28;20033;-71
2021/10/22 04:27:04;;;;;;;14.35;3.10;;;6.60;99.90;;;;;;2080408;28;20513;-70
2021/10/22 04:28:09;;;;;;;13.73;3.10;;;6.60;99.90;;;;;;2080364;28;20037;-71
2021/10/22 04:29:10;;;;;;;14.80;3.15;;;6.60;99.90;;;;;;2080181;28;20506;-71
2021/10/22 04:30:10;;;;;;;14.90;3.50;;;6.60;99.90;;;;;;2079951;28;20060;-72
2021/10/22 04:31:11;;;;;;;13.52;2.92;;;6.50;99.90;;;;;;2080089;28;20040;-72
2021/10/22 04:32:12;;;;;;;14.52;3.40;;;6.60;99.90;;;;;;2080146;28;20116;-71
2021/10/22 04:33:13;;;;;;;11.98;3.15;;;6.60;99.90;;;;;;2079681;28;20600;-71
2021/10/22 04:34:13;;;;;;;11.27;2.90;;;6.50;99.90;;;;;;2080830;28;20439;-71
2021/10/22 04:35:14;;;;;;;13.25;3.30;;;6.50;99.90;;;;;;2080739;28;20071;-71
2021/10/22 04:36:15;;;;;;;14.68;3.17;;;6.60;99.90;;;;;;2080123;28;20241;-71
2021/10/22 04:41:25;;;;;;;13.57;3.15;;;6.50;99.90;;;;;;2083213;28;20500;-72
2021/10/22 04:42:25;;;;;;;14.52;3.30;;;6.50;99.90;;;;;;2084374;28;20029;-73
2021/10/22 04:43:26;;;;;;;15.82;3.30;;;6.50;99.90;;;;;;2083351;28;20048;-72
2021/10/22 04:44:29;;;;;;;13.23;3.60;;;6.50;99.90;;;;;;2083297;28;20029;-73
2021/10/22 04:45:33;;;;;;;13.38;3.40;;;6.50;99.90;;;;;;2081029;28;20026;-71
2021/10/22 04:46:33;;;;;;;15.27;3.45;;;6.50;99.90;;;;;;2080680;28;20084;-70
2021/10/22 04:47:34;;;;;;;15.50;3.67;;;6.50;99.90;;;;;;2080078;28;20049;-71
2021/10/22 04:48:35;;;;;;;16.00;3.47;;;6.50;99.90;;;;;;2080079;28;20516;-74
2021/10/22 04:49:35;;;;;;;10.80;3.28;;;6.50;99.90;;;;;;2080546;28;20033;-73
2021/10/22 04:50:41;;;;;;;14.48;3.20;;;6.50;99.90;;;;;;2079998;28;20511;-71
2021/10/22 04:51:41;;;;;;;14.45;3.55;;;6.50;99.90;;;;;;2079790;28;20041;-71
2021/10/22 04:52:42;;;;;;;17.30;4.57;;;6.50;99.90;;;;;;2079938;28;20489;-71
2021/10/22 04:53:42;;;;;;;16.25;3.55;;;6.50;99.90;;;;;;2078884;28;20043;-70
2021/10/22 04:54:43;;;;;;;14.73;3.65;;;6.50;99.90;;;;;;2080709;28;20381;-72
2021/10/22 04:55:44;;;;;;;14.77;3.40;;;6.50;99.90;;;;;;2080090;28;20418;-72
2021/10/22 04:56:44;;;;;;;17.63;3.55;;;6.50;99.90;;;;;;2079979;28;20060;-72
2021/10/22 04:57:45;;;;;;;14.57;3.72;;;6.50;99.90;;;;;;2080872;28;20025;-73
2021/10/22 04:58:47;;;;;;;14.35;3.42;;;6.50;99.90;;;;;;2080639;28;20028;-72
2021/10/22 04:59:48;;;;;;;14.27;3.28;;;6.50;99.90;;;;;;2080538;28;20048;-72
2021/10/22 05:00:48;;;;;;;11.95;3.22;;;6.50;99.90;;;;;;2079866;28;20038;-71
2021/10/22 05:01:49;;;;;;;13.73;3.20;;;6.50;99.90;;;;;;2079963;28;20064;-71
2021/10/22 05:02:49;;;;;;;13.20;3.05;;;6.50;99.90;;;;;;2080923;28;20104;-70
2021/10/22 05:03:50;;;;;;;10.60;3.70;;;6.50;99.90;;;;;;2080839;28;20116;-70
2021/10/22 05:04:50;;;;;;;13.18;3.70;;;6.50;99.90;;;;;;2080955;28;20018;-70
2021/10/22 05:05:51;;;;;;;16.25;3.40;;;6.50;99.90;;;;;;2080260;28;20539;-70
2021/10/22 05:06:52;;;;;;;14.18;3.58;;;6.50;99.90;;;;;;2080389;28;20026;-71
2021/10/22 05:07:52;;;;;;;12.40;3.33;;;6.50;99.90;;;;;;2080950;28;20022;-70
2021/10/22 05:08:53;;;;;;;11.27;3.03;;;6.50;99.90;;;;;;2080850;28;20036;-71
2021/10/22 05:09:53;;;;;;;13.85;3.35;;;6.50;99.90;;;;;;2080490;28;20025;-70
2021/10/22 05:10:54;;;;;;;16.27;3.45;;;6.50;99.90;;;;;;2072083;28;20038;-71
2021/10/22 05:11:54;;;;;;;15.35;3.35;;;6.60;99.90;;;;;;2080010;28;20026;-71
2021/10/22 05:12:55;;;;;;;17.45;3.42;;;6.60;99.90;;;;;;2080809;28;20025;-71
2021/10/22 05:13:56;;;;;;;12.25;3.00;;;6.60;99.90;;;;;;2080982;28;20032;-71
2021/10/22 05:14:58;;;;;;;15.30;3.20;;;6.60;99.90;;;;;;2080563;28;20065;-71
2021/10/22 05:15:58;;;;;;;12.88;3.25;;;6.60;99.90;;;;;;2080700;28;20041;-71
2021/10/22 05:17:00;;;;;;;22.50;3.53;;;6.50;99.90;;;;;;2081342;28;20022;-71
2021/10/22 05:18:00;;;;;;;11.85;3.42;;;6.60;99.90;;;;;;2080570;28;20031;-71
2021/10/22 05:19:01;;;;;;;15.10;3.60;;;6.60;99.90;;;;;;2072703;28;20504;-72
2021/10/22 05:20:04;;;;;;;14.20;4.00;;;6.50;99.90;;;;;;2080846;28;20041;-72
2021/10/22 05:21:04;;;;;;;11.52;3.42;;;6.60;99.90;;;;;;2080944;28;20030;-71
2021/10/22 05:22:05;;;;;;;14.77;3.40;;;6.50;99.90;;;;;;2080629;28;20128;-71